createdAt,value
2023-03-26T00:00:02.134Z,1002.74
2023-03-26T00:01:02.527Z,1002.71
2023-03-26T00:02:02.428Z,1002.68
2023-03-26T00:03:01.549Z,1002.71
2023-03-26T00:04:02.579Z,1002.75
2023-03-26T00:05:01.173Z,1002.74
2023-03-26T00:06:01.163Z,1002.71
2023-03-26T00:07:01.368Z,1002.78
2023-03-26T00:08:01.422Z,1002.76
2023-03-26T00:09:01.159Z,1002.81
2023-03-26T00:10:01.053Z,1002.81
2023-03-26T00:11:01.256Z,1002.76
2023-03-26T00:12:02.217Z,1002.75
2023-03-26T00:13:04.134Z,1002.78
2023-03-26T00:14:01.449Z,1002.77
2023-03-26T00:15:01.857Z,1002.78
2023-03-26T00:16:02.140Z,1002.78
2023-03-26T00:17:01.251Z,1002.82
2023-03-26T00:18:01.162Z,1002.84
2023-03-26T00:19:01.206Z,1002.81
2023-03-26T00:20:01.133Z,1002.87
2023-03-26T00:21:01.434Z,1002.86
2023-03-26T00:22:01.154Z,1002.87
2023-03-26T00:23:01.059Z,1002.88
2023-03-26T00:24:00.747Z,1002.84
2023-03-26T00:25:00.437Z,1002.81
2023-03-26T00:26:00.069Z,1002.85
2023-03-26T00:26:59.811Z,1002.78
2023-03-26T00:27:59.520Z,1002.85
2023-03-26T00:29:01.100Z,1002.84
2023-03-26T00:30:01.076Z,1002.77
2023-03-26T00:31:01.240Z,1002.82
2023-03-26T00:32:01.039Z,1002.81
2023-03-26T00:33:01.077Z,1002.8
2023-03-26T00:34:01.413Z,1002.78
2023-03-26T00:35:01.126Z,1002.84
2023-03-26T00:36:03.925Z,1002.87
2023-03-26T00:37:02.508Z,1002.83
2023-03-26T00:38:01.587Z,1002.82
2023-03-26T00:39:01.720Z,1002.85
2023-03-26T00:40:01.726Z,1002.8
2023-03-26T00:41:01.729Z,1002.77
2023-03-26T00:42:01.225Z,1002.73
2023-03-26T00:43:01.159Z,1002.77
2023-03-26T00:44:01.435Z,1002.77
2023-03-26T00:45:01.457Z,1002.77
2023-03-26T00:46:01.147Z,1002.81
2023-03-26T00:47:01.096Z,1002.83
2023-03-26T00:48:02.758Z,1002.8
2023-03-26T00:49:01.112Z,1002.79
2023-03-26T00:50:01.111Z,1002.81
2023-03-26T00:51:01.186Z,1002.81
2023-03-26T00:52:01.506Z,1002.8
2023-03-26T00:53:01.288Z,1002.82
2023-03-26T00:54:01.146Z,1002.82
2023-03-26T00:55:01.036Z,1002.81
2023-03-26T00:56:01.064Z,1002.78
2023-03-26T00:57:01.064Z,1002.83
2023-03-26T00:58:01.060Z,1002.77
2023-03-26T00:59:01.031Z,1002.82
2023-03-26T01:00:01.082Z,1002.76
2023-03-26T01:01:01.498Z,1002.76
2023-03-26T01:02:01.178Z,1002.92
2023-03-26T01:03:01.213Z,1002.85
2023-03-26T01:05:01.520Z,1002.82
2023-03-26T01:06:02.535Z,1002.88
2023-03-26T01:07:01.121Z,1002.78
2023-03-26T01:08:01.119Z,1002.86
2023-03-26T01:09:01.122Z,1002.93
2023-03-26T01:10:01.135Z,1002.83
2023-03-26T01:11:01.042Z,1002.89
2023-03-26T01:12:01.075Z,1002.88
2023-03-26T01:13:01.739Z,1002.9
2023-03-26T01:14:01.334Z,1002.88
2023-03-26T01:15:02.129Z,1002.84
2023-03-26T01:16:03.410Z,1002.84
2023-03-26T01:17:01.774Z,1002.88
2023-03-26T01:18:01.121Z,1002.9
2023-03-26T01:19:01.897Z,1002.88
2023-03-26T01:20:01.111Z,1002.86
2023-03-26T01:21:06.009Z,1002.81
2023-03-26T01:22:01.509Z,1002.88
2023-03-26T01:23:01.527Z,1002.86
2023-03-26T01:24:01.131Z,1002.83
2023-03-26T01:25:01.166Z,1002.83
2023-03-26T01:26:09.158Z,1002.88
2023-03-26T01:27:01.448Z,1002.86
2023-03-26T01:28:01.088Z,1002.89
2023-03-26T01:29:01.252Z,1002.9
2023-03-26T01:30:01.227Z,1002.9
2023-03-26T01:31:11.780Z,1002.89
2023-03-26T01:32:16.440Z,1002.93
2023-03-26T01:33:01.938Z,1002.98
2023-03-26T01:34:01.149Z,1002.91
2023-03-26T01:35:01.278Z,1002.89
2023-03-26T01:36:14.869Z,1002.97
2023-03-26T01:37:01.759Z,1002.83
2023-03-26T01:38:01.314Z,1002.94
2023-03-26T01:39:01.268Z,1002.89
2023-03-26T01:40:01.504Z,1002.89
2023-03-26T01:41:01.235Z,1002.9
2023-03-26T01:42:01.973Z,1002.95
2023-03-26T01:43:05.480Z,1002.95
2023-03-26T01:44:01.028Z,1002.94
2023-03-26T01:45:01.059Z,1003
2023-03-26T01:46:01.044Z,1002.98
2023-03-26T01:47:01.312Z,1002.98
2023-03-26T01:48:01.470Z,1002.97
2023-03-26T01:49:02.043Z,1002.98
2023-03-26T01:50:02.274Z,1003
2023-03-26T01:51:00.761Z,1003.05
2023-03-26T01:52:00.484Z,1003.03
2023-03-26T01:53:00.340Z,1003
2023-03-26T01:54:00.321Z,1003.04
2023-03-26T01:54:59.995Z,1003.09
2023-03-26T01:55:59.666Z,1003.05
2023-03-26T01:57:01.472Z,1003.02
2023-03-26T01:58:01.139Z,1003.01
2023-03-26T01:59:01.043Z,1003.01
2023-03-26T02:00:01.025Z,1003.02
2023-03-26T02:01:01.038Z,1002.97
2023-03-26T02:02:01.263Z,1002.98
2023-03-26T02:03:01.146Z,1003.01
2023-03-26T02:04:02.176Z,1002.92
2023-03-26T02:05:01.999Z,1002.99
2023-03-26T02:06:02.201Z,1003
2023-03-26T02:07:01.087Z,1003.01
2023-03-26T02:08:01.075Z,1003.03
2023-03-26T02:09:01.097Z,1003.02
2023-03-26T02:10:01.125Z,1003.04
2023-03-26T02:11:01.126Z,1003.05
2023-03-26T02:12:01.116Z,1002.98
2023-03-26T02:13:01.109Z,1002.96
2023-03-26T02:14:01.507Z,1002.98
2023-03-26T02:15:01.027Z,1002.99
2023-03-26T02:16:01.148Z,1003.01
2023-03-26T02:17:01.850Z,1002.96
2023-03-26T02:18:01.252Z,1002.98
2023-03-26T02:19:01.996Z,1002.96
2023-03-26T02:20:01.585Z,1002.96
2023-03-26T02:21:00.650Z,1002.94
2023-03-26T02:22:00.350Z,1002.94
2023-03-26T02:23:00.208Z,1002.95
2023-03-26T02:24:00.557Z,1002.92
2023-03-26T02:25:00.162Z,1002.91
2023-03-26T02:25:59.763Z,1002.93
2023-03-26T02:27:01.726Z,1002.98
2023-03-26T02:28:01.704Z,1002.97
2023-03-26T02:29:01.862Z,1002.96
2023-03-26T02:30:02.138Z,1002.9
2023-03-26T02:31:01.122Z,1002.95
2023-03-26T02:32:01.518Z,1002.95
2023-03-26T02:33:01.081Z,1002.91
2023-03-26T02:34:00.943Z,1002.91
2023-03-26T02:35:01.063Z,1002.89
2023-03-26T02:36:01.129Z,1002.91
2023-03-26T02:37:01.074Z,1002.92
2023-03-26T02:38:01.056Z,1002.91
2023-03-26T02:39:01.061Z,1002.9
2023-03-26T02:40:01.084Z,1002.95
2023-03-26T02:41:01.108Z,1002.96
2023-03-26T02:42:00.786Z,1002.95
2023-03-26T02:43:00.487Z,1002.91
2023-03-26T02:44:00.187Z,1002.98
2023-03-26T02:44:59.836Z,1003
2023-03-26T02:46:01.409Z,1002.94
2023-03-26T02:47:01.030Z,1002.93
2023-03-26T02:48:01.120Z,1002.92
2023-03-26T02:49:01.447Z,1002.94
2023-03-26T02:50:01.036Z,1002.95
2023-03-26T02:51:01.067Z,1002.96
2023-03-26T02:52:01.058Z,1002.9
2023-03-26T02:53:01.056Z,1002.86
2023-03-26T02:54:01.068Z,1002.93
2023-03-26T02:55:01.071Z,1002.92
2023-03-26T02:56:01.095Z,1002.93
2023-03-26T02:57:00.780Z,1002.9
2023-03-26T02:58:00.381Z,1002.94
2023-03-26T02:58:59.955Z,1002.93
2023-03-26T02:59:59.599Z,1002.98
2023-03-26T03:01:01.366Z,1002.94
2023-03-26T03:02:04.320Z,1002.98
2023-03-26T03:03:01.175Z,1002.95
2023-03-26T03:04:01.946Z,1002.94
2023-03-26T03:05:01.987Z,1002.97
2023-03-26T03:06:01.020Z,1002.94
2023-03-26T03:07:06.519Z,1002.95
2023-03-26T03:08:01.059Z,1002.91
2023-03-26T03:09:01.071Z,1002.97
2023-03-26T03:10:01.074Z,1003.03
2023-03-26T03:11:01.107Z,1003.01
2023-03-26T03:12:09.571Z,1003.04
2023-03-26T03:13:01.112Z,1003.06
2023-03-26T03:14:01.261Z,1002.94
2023-03-26T03:15:01.203Z,1002.97
2023-03-26T03:16:01.492Z,1002.96
2023-03-26T03:17:12.657Z,1002.91
2023-03-26T03:18:01.215Z,1003.03
2023-03-26T03:19:01.131Z,1002.88
2023-03-26T03:20:01.036Z,1002.97
2023-03-26T03:21:01.058Z,1002.97
2023-03-26T03:22:15.328Z,1003.02
2023-03-26T03:23:01.404Z,1003.04
2023-03-26T03:24:02.124Z,1003.06
2023-03-26T03:25:01.021Z,1002.99
2023-03-26T03:26:01.286Z,1003.06
2023-03-26T03:27:01.097Z,1003.01
2023-03-26T03:28:01.096Z,1003.05
2023-03-26T03:29:01.324Z,1003.03
2023-03-26T03:30:01.338Z,1003.12
2023-03-26T03:31:01.541Z,1003.05
2023-03-26T03:32:01.536Z,1003.06
2023-03-26T03:33:01.158Z,1003.01
2023-03-26T03:34:01.126Z,1003.11
2023-03-26T03:35:01.130Z,1003.17
2023-03-26T03:36:01.078Z,1003.14
2023-03-26T03:37:01.073Z,1003.09
2023-03-26T03:38:01.749Z,1003.13
2023-03-26T03:39:01.084Z,1003.1
2023-03-26T03:40:01.083Z,1003.13
2023-03-26T03:41:01.039Z,1003.2
2023-03-26T03:42:02.038Z,1003.14
2023-03-26T03:43:01.031Z,1003.14
2023-03-26T03:44:01.029Z,1003.16
2023-03-26T03:45:01.173Z,1003.08
2023-03-26T03:46:01.738Z,1003.14
2023-03-26T03:47:01.416Z,1003.14
2023-03-26T03:48:04.371Z,1003.16
2023-03-26T03:49:01.070Z,1003.15
2023-03-26T03:50:01.165Z,1003.21
2023-03-26T03:51:01.127Z,1003.21
2023-03-26T03:52:01.042Z,1003.24
2023-03-26T03:53:01.423Z,1003.21
2023-03-26T03:54:01.094Z,1003.21
2023-03-26T03:55:01.075Z,1003.15
2023-03-26T03:56:01.063Z,1003.18
2023-03-26T03:57:01.093Z,1003.15
2023-03-26T03:58:01.242Z,1003.17
2023-03-26T03:59:01.755Z,1003.18
2023-03-26T04:00:01.397Z,1003.14
2023-03-26T04:01:02.025Z,1003.22
2023-03-26T04:02:01.506Z,1003.16
2023-03-26T04:03:02.109Z,1003.15
2023-03-26T04:04:01.357Z,1003.14
2023-03-26T04:05:01.140Z,1003.2
2023-03-26T04:06:01.152Z,1003.2
2023-03-26T04:07:01.145Z,1003.16
2023-03-26T04:08:01.152Z,1003.1
2023-03-26T04:09:01.086Z,1003.15
2023-03-26T04:10:04.498Z,1003.12
2023-03-26T04:11:01.172Z,1003.19
2023-03-26T04:12:00.447Z,1003.24
2023-03-26T04:13:00.236Z,1003.19
2023-03-26T04:13:59.955Z,1003.21
2023-03-26T04:14:59.554Z,1003.14
2023-03-26T04:16:02.334Z,1003.17
2023-03-26T04:17:01.493Z,1003.18
2023-03-26T04:18:01.311Z,1003.11
2023-03-26T04:19:02.065Z,1003.19
2023-03-26T04:20:02.157Z,1003.15
2023-03-26T04:21:01.537Z,1003.06
2023-03-26T04:22:01.120Z,1003.09
2023-03-26T04:23:01.058Z,1003.09
2023-03-26T04:24:01.150Z,1003.11
2023-03-26T04:25:01.412Z,1003.15
2023-03-26T04:26:02.275Z,1003.11
2023-03-26T04:27:01.055Z,1003.02
2023-03-26T04:28:01.062Z,1003.07
2023-03-26T04:29:01.227Z,1003.13
2023-03-26T04:30:01.890Z,1003.18
2023-03-26T04:31:02.087Z,1003.09
2023-03-26T04:32:01.252Z,1003.13
2023-03-26T04:33:02.230Z,1003.1
2023-03-26T04:34:02.179Z,1003.14
2023-03-26T04:35:02.519Z,1003.15
2023-03-26T04:36:01.153Z,1003.12
2023-03-26T04:37:01.120Z,1003.09
2023-03-26T04:38:04.196Z,1003.07
2023-03-26T04:39:01.140Z,1003.08
2023-03-26T04:40:01.392Z,1003.06
2023-03-26T04:41:02.070Z,1003.07
2023-03-26T04:42:01.861Z,1003.07
2023-03-26T04:43:07.882Z,1003.07
2023-03-26T04:44:02.721Z,1003.04
2023-03-26T04:45:01.098Z,1003.1
2023-03-26T04:46:01.079Z,1003.09
2023-03-26T04:47:01.094Z,1003.06
2023-03-26T04:48:09.595Z,1003.08
2023-03-26T04:49:00.825Z,1003.12
2023-03-26T04:50:01.088Z,1003.16
2023-03-26T04:51:01.159Z,1003.1
2023-03-26T04:52:01.439Z,1003.09
2023-03-26T04:53:11.636Z,1003.09
2023-03-26T04:54:01.227Z,1003.06
2023-03-26T04:55:02.383Z,1003.06
2023-03-26T04:56:01.050Z,1003.07
2023-03-26T04:57:01.251Z,1003.01
2023-03-26T04:58:14.650Z,1003.02
2023-03-26T04:59:02.512Z,1003.03
2023-03-26T05:00:01.946Z,1003.06
2023-03-26T05:01:10.543Z,1003.02
2023-03-26T05:02:00.681Z,1003.02
2023-03-26T05:03:15.578Z,1003.08
2023-03-26T05:04:01.821Z,1003.06
2023-03-26T05:05:01.572Z,1003.1
2023-03-26T05:06:01.176Z,1003.09
2023-03-26T05:07:02.078Z,1003.12
2023-03-26T05:08:17.381Z,1003.13
2023-03-26T05:09:01.123Z,1003.11
2023-03-26T05:10:00.834Z,1003.11
2023-03-26T05:11:01.129Z,1003.09
2023-03-26T05:12:01.047Z,1003.13
2023-03-26T05:13:01.147Z,1003.12
2023-03-26T05:14:01.128Z,1003.12
2023-03-26T05:15:01.676Z,1003.11
2023-03-26T05:16:01.486Z,1003.16
2023-03-26T05:17:01.190Z,1003.15
2023-03-26T05:18:01.164Z,1003.18
2023-03-26T05:19:01.060Z,1003.21
2023-03-26T05:20:01.094Z,1003.19
2023-03-26T05:21:00.881Z,1003.2
2023-03-26T05:22:01.119Z,1003.2
2023-03-26T05:23:01.120Z,1003.18
2023-03-26T05:24:01.631Z,1003.24
2023-03-26T05:25:01.257Z,1003.2
2023-03-26T05:26:02.263Z,1003.2
2023-03-26T05:27:01.198Z,1003.21
2023-03-26T05:28:01.859Z,1003.24
2023-03-26T05:29:00.939Z,1003.25
2023-03-26T05:30:01.075Z,1003.24
2023-03-26T05:31:01.209Z,1003.23
2023-03-26T05:32:01.047Z,1003.26
2023-03-26T05:33:01.198Z,1003.25
2023-03-26T05:34:01.899Z,1003.27
2023-03-26T05:35:01.458Z,1003.23
2023-03-26T05:36:01.238Z,1003.29
2023-03-26T05:37:02.211Z,1003.22
2023-03-26T05:38:01.042Z,1003.25
2023-03-26T05:39:01.022Z,1003.24
2023-03-26T05:40:01.858Z,1003.33
2023-03-26T05:41:00.791Z,1003.33
2023-03-26T05:42:01.115Z,1003.3
2023-03-26T05:43:01.470Z,1003.27
2023-03-26T05:44:01.945Z,1003.27
2023-03-26T05:45:01.139Z,1003.29
2023-03-26T05:46:01.239Z,1003.31
2023-03-26T05:47:01.072Z,1003.28
2023-03-26T05:48:01.121Z,1003.24
2023-03-26T05:49:01.098Z,1003.33
2023-03-26T05:50:01.201Z,1003.29
2023-03-26T05:51:01.314Z,1003.28
2023-03-26T05:52:01.336Z,1003.33
2023-03-26T05:53:01.462Z,1003.39
2023-03-26T05:54:01.034Z,1003.33
2023-03-26T05:55:01.093Z,1003.3
2023-03-26T05:56:01.119Z,1003.39
2023-03-26T05:57:01.194Z,1003.35
2023-03-26T05:58:01.132Z,1003.35
2023-03-26T05:59:01.034Z,1003.43
2023-03-26T06:00:03.768Z,1003.37
2023-03-26T06:01:01.645Z,1003.39
2023-03-26T06:02:01.683Z,1003.38
2023-03-26T06:03:01.336Z,1003.37
2023-03-26T06:04:01.225Z,1003.38
2023-03-26T06:05:02.201Z,1003.36
2023-03-26T06:06:02.614Z,1003.33
2023-03-26T06:07:01.438Z,1003.41
2023-03-26T06:08:02.096Z,1003.39
2023-03-26T06:09:02.816Z,1003.35
2023-03-26T06:10:01.245Z,1003.43
2023-03-26T06:11:01.094Z,1003.45
2023-03-26T06:12:01.116Z,1003.47
2023-03-26T06:13:01.111Z,1003.45
2023-03-26T06:14:01.505Z,1003.48
2023-03-26T06:15:01.148Z,1003.43
2023-03-26T06:16:01.346Z,1003.41
2023-03-26T06:17:01.046Z,1003.48
2023-03-26T06:18:01.089Z,1003.45
2023-03-26T06:19:01.916Z,1003.43
2023-03-26T06:20:01.180Z,1003.5
2023-03-26T06:21:01.430Z,1003.44
2023-03-26T06:22:01.243Z,1003.47
2023-03-26T06:23:01.283Z,1003.5
2023-03-26T06:24:04.138Z,1003.49
2023-03-26T06:25:01.172Z,1003.46
2023-03-26T06:26:01.264Z,1003.48
2023-03-26T06:27:01.107Z,1003.52
2023-03-26T06:28:01.115Z,1003.55
2023-03-26T06:29:08.325Z,1003.55
2023-03-26T06:30:01.823Z,1003.58
2023-03-26T06:31:02.051Z,1003.5
2023-03-26T06:32:12.457Z,1003.53
2023-03-26T06:33:02.220Z,1003.56
2023-03-26T06:34:10.921Z,1003.55
2023-03-26T06:35:01.932Z,1003.54
2023-03-26T06:36:01.133Z,1003.61
2023-03-26T06:37:01.055Z,1003.57
2023-03-26T06:38:01.065Z,1003.55
2023-03-26T06:39:13.462Z,1003.61
2023-03-26T06:40:01.090Z,1003.54
2023-03-26T06:41:01.108Z,1003.54
2023-03-26T06:42:01.091Z,1003.58
2023-03-26T06:43:07.991Z,1003.58
2023-03-26T06:44:16.526Z,1003.58
2023-03-26T06:45:02.138Z,1003.58
2023-03-26T06:46:01.125Z,1003.59
2023-03-26T06:47:03.777Z,1003.52
2023-03-26T06:48:01.089Z,1003.54
2023-03-26T06:49:01.032Z,1003.59
2023-03-26T06:50:01.115Z,1003.52
2023-03-26T06:51:01.042Z,1003.57
2023-03-26T06:52:01.065Z,1003.61
2023-03-26T06:53:01.416Z,1003.57
2023-03-26T06:54:01.135Z,1003.58
2023-03-26T06:55:01.027Z,1003.53
2023-03-26T06:56:01.029Z,1003.55
2023-03-26T06:57:01.103Z,1003.6
2023-03-26T06:58:01.118Z,1003.56
2023-03-26T06:59:01.802Z,1003.54
2023-03-26T07:00:01.371Z,1003.53
2023-03-26T07:01:01.414Z,1003.55
2023-03-26T07:02:01.012Z,1003.62
2023-03-26T07:03:01.207Z,1003.61
2023-03-26T07:04:01.198Z,1003.57
2023-03-26T07:05:01.088Z,1003.59
2023-03-26T07:06:01.040Z,1003.59
2023-03-26T07:07:01.175Z,1003.66
2023-03-26T07:08:01.192Z,1003.61
2023-03-26T07:09:01.299Z,1003.61
2023-03-26T07:10:01.453Z,1003.49
2023-03-26T07:11:01.458Z,1003.5
2023-03-26T07:12:01.196Z,1003.52
2023-03-26T07:13:01.091Z,1003.57
2023-03-26T07:14:01.102Z,1003.47
2023-03-26T07:15:01.705Z,1003.52
2023-03-26T07:16:01.053Z,1003.57
2023-03-26T07:17:01.244Z,1003.45
2023-03-26T07:18:01.503Z,1003.45
2023-03-26T07:19:01.153Z,1003.42
2023-03-26T07:20:01.140Z,1003.46
2023-03-26T07:21:01.418Z,1003.39
2023-03-26T07:22:01.132Z,1003.44
2023-03-26T07:23:01.770Z,1003.4
2023-03-26T07:24:01.233Z,1003.48
2023-03-26T07:25:01.376Z,1003.44
2023-03-26T07:26:01.061Z,1003.38
2023-03-26T07:27:01.069Z,1003.42
2023-03-26T07:28:01.491Z,1003.38
2023-03-26T07:29:04.790Z,1003.4
2023-03-26T07:30:02.061Z,1003.46
2023-03-26T07:31:01.304Z,1003.45
2023-03-26T07:32:02.090Z,1003.45
2023-03-26T07:33:01.487Z,1003.44
2023-03-26T07:34:01.148Z,1003.45
2023-03-26T07:35:01.155Z,1003.47
2023-03-26T07:36:01.134Z,1003.44
2023-03-26T07:37:01.711Z,1003.45
2023-03-26T07:38:01.916Z,1003.45
2023-03-26T07:39:01.997Z,1003.41
2023-03-26T07:40:00.953Z,1003.4
2023-03-26T07:41:01.226Z,1003.34
2023-03-26T07:42:01.010Z,1003.39
2023-03-26T07:43:01.478Z,1003.45
2023-03-26T07:44:01.184Z,1003.45
2023-03-26T07:45:01.368Z,1003.48
2023-03-26T07:46:01.391Z,1003.48
2023-03-26T07:47:01.090Z,1003.42
2023-03-26T07:48:01.190Z,1003.49
2023-03-26T07:49:01.126Z,1003.47
2023-03-26T07:50:01.348Z,1003.48
2023-03-26T07:51:01.519Z,1003.49
2023-03-26T07:52:01.508Z,1003.47
2023-03-26T07:53:01.277Z,1003.4
2023-03-26T07:54:01.385Z,1003.46
2023-03-26T07:55:01.338Z,1003.38
2023-03-26T07:56:01.113Z,1003.42
2023-03-26T07:57:02.132Z,1003.41
2023-03-26T07:58:01.760Z,1003.42
2023-03-26T07:59:02.125Z,1003.36
2023-03-26T08:00:02.224Z,1003.39
2023-03-26T08:01:01.509Z,1003.35
2023-03-26T08:02:01.191Z,1003.38
2023-03-26T08:03:01.267Z,1003.38
2023-03-26T08:04:23.904Z,1003.39
2023-03-26T08:05:05.486Z,1003.38
2023-03-26T08:06:01.276Z,1003.38
2023-03-26T08:07:01.289Z,1003.33
2023-03-26T08:08:01.456Z,1003.3
2023-03-26T08:09:01.622Z,1003.33
2023-03-26T08:10:08.328Z,1003.29
2023-03-26T08:11:01.876Z,1003.3
2023-03-26T08:12:01.105Z,1003.36
2023-03-26T08:13:01.034Z,1003.33
2023-03-26T08:14:01.082Z,1003.32
2023-03-26T08:15:11.183Z,1003.3
2023-03-26T08:16:01.585Z,1003.35
2023-03-26T08:17:01.500Z,1003.32
2023-03-26T08:18:01.125Z,1003.32
2023-03-26T08:19:01.103Z,1003.35
2023-03-26T08:20:15.206Z,1003.34
2023-03-26T08:21:01.113Z,1003.3
2023-03-26T08:22:00.793Z,1003.26
2023-03-26T08:23:00.456Z,1003.26
2023-03-26T08:24:00.008Z,1003.27
2023-03-26T08:24:59.683Z,1003.18
2023-03-26T08:26:01.855Z,1003.29
2023-03-26T08:27:01.178Z,1003.21
2023-03-26T08:28:01.045Z,1003.23
2023-03-26T08:29:01.170Z,1003.27
2023-03-26T08:30:01.190Z,1003.23
2023-03-26T08:31:01.388Z,1003.27
2023-03-26T08:32:01.351Z,1003.32
2023-03-26T08:33:01.422Z,1003.28
2023-03-26T08:34:01.508Z,1003.24
2023-03-26T08:35:01.215Z,1003.28
2023-03-26T08:36:01.693Z,1003.25
2023-03-26T08:37:02.643Z,1003.22
2023-03-26T08:38:01.512Z,1003.26
2023-03-26T08:39:01.167Z,1003.27
2023-03-26T08:40:01.152Z,1003.27
2023-03-26T08:41:01.187Z,1003.29
2023-03-26T08:42:01.051Z,1003.27
2023-03-26T08:43:01.042Z,1003.29
2023-03-26T08:44:01.055Z,1003.32
2023-03-26T08:45:01.060Z,1003.25
2023-03-26T08:46:00.414Z,1003.26
2023-03-26T08:47:00.194Z,1003.29
2023-03-26T08:47:59.882Z,1003.23
2023-03-26T08:48:59.544Z,1003.26
2023-03-26T08:50:01.114Z,1003.25
2023-03-26T08:51:01.019Z,1003.32
2023-03-26T08:52:01.679Z,1003.29
2023-03-26T08:53:01.440Z,1003.35
2023-03-26T08:54:01.238Z,1003.25
2023-03-26T08:55:01.260Z,1003.25
2023-03-26T08:56:01.943Z,1003.28
2023-03-26T08:57:01.159Z,1003.28
2023-03-26T08:58:01.128Z,1003.28
2023-03-26T08:59:01.044Z,1003.31
2023-03-26T09:00:02.773Z,1003.29
2023-03-26T09:01:01.232Z,1003.26
2023-03-26T09:02:01.806Z,1003.26
2023-03-26T09:03:01.459Z,1003.28
2023-03-26T09:04:02.726Z,1003.24
2023-03-26T09:05:01.447Z,1003.21
2023-03-26T09:06:02.251Z,1003.19
2023-03-26T09:07:01.116Z,1003.15
2023-03-26T09:08:01.565Z,1003.11
2023-03-26T09:09:02.034Z,1003.14
2023-03-26T09:10:01.206Z,1003.21
2023-03-26T09:11:01.494Z,1003.16
2023-03-26T09:12:01.235Z,1003.16
2023-03-26T09:13:01.126Z,1003.16
2023-03-26T09:14:01.043Z,1003.19
2023-03-26T09:15:01.313Z,1003.18
2023-03-26T09:16:01.056Z,1003.19
2023-03-26T09:17:01.053Z,1003.19
2023-03-26T09:18:01.188Z,1003.16
2023-03-26T09:19:01.725Z,1003.13
2023-03-26T09:20:01.161Z,1003.15
2023-03-26T09:21:01.461Z,1003.1
2023-03-26T09:22:01.186Z,1003.14
2023-03-26T09:23:01.086Z,1003.11
2023-03-26T09:24:01.157Z,1003.16
2023-03-26T09:25:01.723Z,1003.12
2023-03-26T09:26:01.152Z,1003.14
2023-03-26T09:27:01.144Z,1003.16
2023-03-26T09:28:01.129Z,1003.18
2023-03-26T09:29:01.128Z,1003.13
2023-03-26T09:30:01.349Z,1003.14
2023-03-26T09:31:01.473Z,1003.15
2023-03-26T09:32:01.360Z,1003.15
2023-03-26T09:33:01.111Z,1003.16
2023-03-26T09:34:01.074Z,1003.18
2023-03-26T09:35:01.081Z,1003.2
2023-03-26T09:36:01.905Z,1003.15
2023-03-26T09:37:00.827Z,1003.17
2023-03-26T09:38:00.468Z,1003.18
2023-03-26T09:39:00.385Z,1003.19
2023-03-26T09:40:00.396Z,1003.18
2023-03-26T09:41:00.100Z,1003.2
2023-03-26T09:41:59.763Z,1003.16
2023-03-26T09:43:01.383Z,1003.19
2023-03-26T09:44:02.042Z,1003.24
2023-03-26T09:45:02.009Z,1003.22
2023-03-26T09:46:00.260Z,1003.13
2023-03-26T09:47:00.132Z,1003.15
2023-03-26T09:47:59.762Z,1003.22
2023-03-26T09:49:01.503Z,1003.14
2023-03-26T09:50:01.169Z,1003.16
2023-03-26T09:51:02.826Z,1003.13
2023-03-26T09:52:01.466Z,1003.19
2023-03-26T09:53:01.081Z,1003.14
2023-03-26T09:54:01.101Z,1003.15
2023-03-26T09:55:01.097Z,1003.14
2023-03-26T09:56:05.483Z,1003.14
2023-03-26T09:57:01.208Z,1003.14
2023-03-26T09:58:01.201Z,1003.11
2023-03-26T09:59:01.523Z,1003.15
2023-03-26T10:00:01.586Z,1003.12
2023-03-26T10:01:07.720Z,1003.13
2023-03-26T10:02:01.237Z,1003.13
2023-03-26T10:03:01.690Z,1003.06
2023-03-26T10:04:01.843Z,1003.12
2023-03-26T10:05:01.771Z,1003.12
2023-03-26T10:06:08.857Z,1003.18
2023-03-26T10:07:01.786Z,1003.12
2023-03-26T10:08:01.471Z,1003.15
2023-03-26T10:09:01.116Z,1003.12
2023-03-26T10:10:01.085Z,1003.12
2023-03-26T10:11:13.692Z,1003.07
2023-03-26T10:12:01.490Z,1003.11
2023-03-26T10:13:11.972Z,1003.12
2023-03-26T10:14:01.867Z,1003.12
2023-03-26T10:15:01.337Z,1003.08
2023-03-26T10:16:16.440Z,1003.07
2023-03-26T10:17:01.054Z,1003.04
2023-03-26T10:18:01.252Z,1003.05
2023-03-26T10:19:01.056Z,1003
2023-03-26T10:20:01.078Z,1003.06
2023-03-26T10:21:01.164Z,1003.01
2023-03-26T10:22:01.038Z,1003.02
2023-03-26T10:23:00.957Z,1002.97
2023-03-26T10:24:01.478Z,1002.92
2023-03-26T10:25:01.213Z,1002.98
2023-03-26T10:26:01.095Z,1002.91
2023-03-26T10:27:09.912Z,1002.9
2023-03-26T10:28:01.108Z,1002.89
2023-03-26T10:29:01.116Z,1002.87
2023-03-26T10:30:01.119Z,1002.85
2023-03-26T10:31:01.221Z,1002.92
2023-03-26T10:32:01.246Z,1002.95
2023-03-26T10:33:01.215Z,1002.96
2023-03-26T10:34:02.233Z,1002.98
2023-03-26T10:35:02.229Z,1002.9
2023-03-26T10:36:02.660Z,1002.94
2023-03-26T10:37:01.083Z,1002.92
2023-03-26T10:38:01.509Z,1002.85
2023-03-26T10:39:01.098Z,1002.9
2023-03-26T10:40:01.467Z,1002.84
2023-03-26T10:41:01.191Z,1002.87
2023-03-26T10:42:01.183Z,1002.83
2023-03-26T10:43:00.885Z,1002.85
2023-03-26T10:44:08.051Z,1002.86
2023-03-26T10:45:01.102Z,1002.9
2023-03-26T10:46:01.551Z,1002.91
2023-03-26T10:47:01.153Z,1002.93
2023-03-26T10:48:01.401Z,1002.92
2023-03-26T10:49:01.622Z,1002.9
2023-03-26T10:50:01.035Z,1002.87
2023-03-26T10:51:01.834Z,1002.81
2023-03-26T10:52:01.199Z,1002.91
2023-03-26T10:53:02.012Z,1002.89
2023-03-26T10:54:01.758Z,1002.91
2023-03-26T10:55:01.082Z,1002.89
2023-03-26T10:56:01.086Z,1002.87
2023-03-26T10:57:01.526Z,1002.83
2023-03-26T10:58:01.147Z,1002.82
2023-03-26T10:59:01.087Z,1002.83
2023-03-26T11:00:01.091Z,1002.78
2023-03-26T11:01:01.561Z,1002.82
2023-03-26T11:02:01.312Z,1002.73
2023-03-26T11:03:01.330Z,1002.74
2023-03-26T11:04:02.417Z,1002.74
2023-03-26T11:05:02.536Z,1002.7
2023-03-26T11:06:01.188Z,1002.71
2023-03-26T11:07:01.578Z,1002.69
2023-03-26T11:08:01.865Z,1002.69
2023-03-26T11:09:01.080Z,1002.62
2023-03-26T11:10:01.065Z,1002.67
2023-03-26T11:11:01.107Z,1002.63
2023-03-26T11:12:01.492Z,1002.62
2023-03-26T11:13:01.334Z,1002.59
2023-03-26T11:14:01.164Z,1002.58
2023-03-26T11:15:01.220Z,1002.57
2023-03-26T11:16:01.094Z,1002.61
2023-03-26T11:17:01.039Z,1002.58
2023-03-26T11:18:01.457Z,1002.61
2023-03-26T11:19:01.630Z,1002.5
2023-03-26T11:20:02.105Z,1002.46
2023-03-26T11:21:19.249Z,1002.51
2023-03-26T11:22:01.163Z,1002.54
2023-03-26T11:23:01.180Z,1002.5
2023-03-26T11:24:05.680Z,1002.56
2023-03-26T11:25:03.314Z,1002.48
2023-03-26T11:26:01.356Z,1002.49
2023-03-26T11:27:15.772Z,1002.45
2023-03-26T11:28:01.934Z,1002.43
2023-03-26T11:29:04.243Z,1002.39
2023-03-26T11:30:01.545Z,1002.4
2023-03-26T11:31:01.556Z,1002.36
2023-03-26T11:32:08.160Z,1002.39
2023-03-26T11:33:00.654Z,1002.29
2023-03-26T11:34:00.189Z,1002.28
2023-03-26T11:34:59.800Z,1002.27
2023-03-26T11:35:59.753Z,1002.24
2023-03-26T11:37:10.924Z,1002.22
2023-03-26T11:38:01.527Z,1002.13
2023-03-26T11:39:01.233Z,1002.12
2023-03-26T11:40:02.609Z,1002.06
2023-03-26T11:41:01.080Z,1002.07
2023-03-26T11:42:11.248Z,1002.06
2023-03-26T11:43:01.434Z,1002.1
2023-03-26T11:44:00.976Z,1002.08
2023-03-26T11:45:00.727Z,1002.02
2023-03-26T11:46:00.533Z,1002.03
2023-03-26T11:47:13.787Z,1002.01
2023-03-26T11:48:01.168Z,1001.99
2023-03-26T11:49:01.503Z,1001.96
2023-03-26T11:50:02.555Z,1001.95
2023-03-26T11:51:01.480Z,1001.95
2023-03-26T11:52:17.014Z,1001.91
2023-03-26T11:53:01.127Z,1001.88
2023-03-26T11:54:01.137Z,1001.86
2023-03-26T11:55:01.123Z,1001.83
2023-03-26T11:56:02.290Z,1001.86
2023-03-26T11:57:06.481Z,1001.81
2023-03-26T11:58:01.343Z,1001.82
2023-03-26T11:59:03.997Z,1001.78
2023-03-26T12:00:04.018Z,1001.76
2023-03-26T12:01:01.180Z,1001.74
2023-03-26T12:02:00.864Z,1001.75
2023-03-26T12:03:01.102Z,1001.69
2023-03-26T12:04:01.181Z,1001.76
2023-03-26T12:05:01.153Z,1001.76
2023-03-26T12:06:01.347Z,1001.7
2023-03-26T12:07:01.266Z,1001.68
2023-03-26T12:08:04.055Z,1001.69
2023-03-26T12:09:02.158Z,1001.69